Archival Weather

Snohomish County (Paine Fld)

Everett, Washington (KPAE)

Report from: Saturday, November 18, 2023 5:53 PM PST
Current time: Thursday, June 20, 2024 11:39 PM PDT

Current weather – Weather history – Daily summaries
Weather forecast

Temperature11.7°C (53.1°F)
Dew point2.8°C (37.0°F)
Winds 3 kts (1.5 m/s, 3.5 mph) Vrb
Winds variableWinds variable
Visibility10 mi. (16.1 km)
Clouds Scattered clouds 9,500 ft. (2,896 m)
Altimeter29.57 in.Hg (1001 mB)
Relative humidity54 %
Density altitude112 ft. (34 m)
Sea-level pressure100.2 kPa (1002 mB, 29.58 in.Hg)
Remarks Automated weather observing station with precipitation discriminator
Flight conditions Visual Meteorological Conditions
Raw dataKPAE 190153Z VRB03KT 10SM SCT095 12/03 A2957 RMK AO2 SLP017 T01170028
An error has occurred. This application may no longer respond until reloaded. Reload 🗙